createdAt,value
2019-02-25T00:01:56.097Z,99.90
2019-02-25T00:04:26.067Z,99.90
2019-02-25T00:06:55.949Z,99.90
2019-02-25T00:09:25.684Z,99.90
2019-02-25T00:11:55.429Z,99.90
2019-02-25T00:14:25.325Z,99.90
2019-02-25T00:16:55.209Z,99.90
2019-02-25T00:19:24.952Z,99.90
2019-02-25T00:21:54.962Z,99.90
2019-02-25T00:24:24.709Z,99.90
2019-02-25T00:26:54.458Z,99.90
2019-02-25T00:29:24.452Z,99.90
2019-02-25T00:31:54.268Z,99.90
2019-02-25T00:34:24.005Z,99.90
2019-02-25T00:36:53.817Z,99.90
2019-02-25T00:39:23.632Z,99.90
2019-02-25T00:41:53.363Z,99.90
2019-02-25T00:44:23.109Z,99.90
2019-02-25T00:46:53.089Z,99.90
2019-02-25T00:49:22.924Z,99.90
2019-02-25T00:51:52.746Z,99.90
2019-02-25T00:54:22.634Z,99.90
2019-02-25T00:56:52.513Z,99.90
2019-02-25T00:59:22.322Z,99.90
2019-02-25T01:01:52.912Z,99.90
2019-02-25T01:04:23.912Z,99.90
2019-02-25T01:06:54.081Z,99.90
2019-02-25T01:09:23.885Z,99.90
2019-02-25T01:11:53.883Z,99.90
2019-02-25T01:14:23.716Z,99.90
2019-02-25T01:16:53.716Z,99.90
2019-02-25T01:19:23.480Z,99.90
2019-02-25T01:21:53.300Z,99.90
2019-02-25T01:24:23.067Z,99.90
2019-02-25T01:26:52.812Z,99.90
2019-02-25T01:29:23.561Z,99.90
2019-02-25T01:31:53.298Z,99.90
2019-02-25T01:34:23.061Z,99.90
2019-02-25T01:36:52.787Z,99.90
2019-02-25T01:39:22.779Z,99.90
2019-02-25T01:41:52.636Z,99.90
2019-02-25T01:44:22.449Z,99.90
2019-02-25T01:46:52.265Z,99.90
2019-02-25T01:49:22.004Z,99.90
2019-02-25T01:51:51.753Z,99.90
2019-02-25T01:54:21.573Z,99.90
2019-02-25T01:56:51.316Z,99.90
2019-02-25T01:59:21.057Z,99.90
2019-02-25T02:01:51.001Z,99.90
2019-02-25T02:04:21.592Z,99.90
2019-02-25T02:06:51.327Z,99.90
2019-02-25T02:09:21.071Z,99.90
2019-02-25T02:11:50.973Z,99.90
2019-02-25T02:14:20.700Z,99.90
2019-02-25T02:16:50.438Z,99.90
2019-02-25T02:19:20.257Z,99.90
2019-02-25T02:21:50.157Z,99.90
2019-02-25T02:24:19.918Z,99.90
2019-02-25T02:26:49.653Z,99.90
2019-02-25T02:29:19.527Z,99.90
2019-02-25T02:31:49.346Z,99.90
2019-02-25T02:34:19.093Z,99.90
2019-02-25T02:36:48.904Z,99.90
2019-02-25T02:39:18.717Z,99.90
2019-02-25T02:42:13.790Z,99.90
2019-02-25T02:44:46.300Z,99.90
2019-02-25T02:47:28.492Z,99.90
2019-02-25T02:49:58.499Z,99.90
2019-02-25T02:52:28.325Z,99.90
2019-02-25T02:54:58.163Z,99.90
2019-02-25T02:57:28.020Z,99.90
2019-02-25T02:59:57.760Z,99.90
2019-02-25T03:02:27.496Z,99.90
2019-02-25T03:04:57.750Z,99.90
2019-02-25T03:07:27.583Z,99.90
2019-02-25T03:09:58.907Z,99.90
2019-02-25T03:12:29.870Z,99.90
2019-02-25T03:14:59.638Z,99.90
2019-02-25T03:17:29.426Z,99.90
2019-02-25T03:19:59.156Z,99.90
2019-02-25T03:22:28.910Z,99.90
2019-02-25T03:24:59.616Z,99.90
2019-02-25T03:27:29.360Z,99.90
2019-02-25T03:29:59.417Z,99.90
2019-02-25T03:32:29.173Z,99.90
2019-02-25T03:34:58.984Z,99.90
2019-02-25T03:37:28.724Z,99.90
2019-02-25T03:39:58.456Z,99.90
2019-02-25T03:42:28.352Z,99.90
2019-02-25T03:44:58.413Z,99.90
2019-02-25T03:47:28.170Z,99.90
2019-02-25T03:49:57.916Z,99.90
2019-02-25T03:52:27.736Z,99.90
2019-02-25T03:54:57.473Z,99.90
2019-02-25T03:57:27.310Z,99.90
2019-02-25T03:59:57.433Z,99.90
2019-02-25T04:02:27.336Z,99.90
2019-02-25T04:04:57.251Z,99.90
2019-02-25T04:07:27.173Z,99.90
2019-02-25T04:09:56.917Z,99.90
2019-02-25T04:12:26.725Z,99.90
2019-02-25T04:14:56.538Z,99.90
2019-02-25T04:17:26.372Z,99.90
2019-02-25T04:19:56.303Z,99.90
2019-02-25T04:22:26.104Z,99.90
2019-02-25T04:24:56.260Z,99.90
2019-02-25T04:27:26.296Z,99.90
2019-02-25T04:29:56.035Z,99.90
2019-02-25T04:32:25.758Z,99.90
2019-02-25T04:34:55.756Z,99.90
2019-02-25T04:37:25.493Z,99.90
2019-02-25T04:39:55.243Z,99.90
2019-02-25T04:42:24.985Z,99.90
2019-02-25T04:44:54.725Z,99.90
2019-02-25T04:47:24.473Z,99.90
2019-02-25T04:49:54.218Z,99.90
2019-02-25T04:52:23.961Z,99.90
2019-02-25T04:54:53.709Z,99.90
2019-02-25T04:57:23.442Z,99.90
2019-02-25T04:59:53.181Z,99.90
2019-02-25T05:02:23.009Z,99.90
2019-02-25T05:04:53.328Z,99.90
2019-02-25T05:07:23.075Z,99.90
2019-02-25T05:09:53.793Z,99.90
2019-02-25T05:12:23.525Z,99.90
2019-02-25T05:14:53.269Z,99.90
2019-02-25T05:17:23.992Z,99.90
2019-02-25T05:19:53.801Z,99.90
2019-02-25T05:22:23.542Z,99.90
2019-02-25T05:24:53.720Z,99.90
2019-02-25T05:27:23.788Z,99.90
2019-02-25T05:29:53.612Z,99.90
2019-02-25T05:32:23.360Z,99.90
2019-02-25T05:34:53.094Z,99.90
2019-02-25T05:37:22.840Z,99.90
2019-02-25T05:39:52.585Z,99.90
2019-02-25T05:42:22.334Z,99.90
2019-02-25T05:44:52.076Z,99.90
2019-02-25T05:47:21.823Z,99.90
2019-02-25T05:49:51.638Z,99.90
2019-02-25T05:52:21.410Z,99.90
2019-02-25T05:54:51.169Z,99.90
2019-02-25T05:57:20.972Z,99.90
2019-02-25T05:59:51.053Z,99.90
2019-02-25T06:02:21.056Z,99.90
2019-02-25T06:04:51.117Z,99.90
2019-02-25T06:07:21.073Z,99.90
2019-02-25T06:09:50.888Z,99.90
2019-02-25T06:12:20.631Z,99.90
2019-02-25T06:14:50.378Z,99.90
2019-02-25T06:17:20.369Z,99.90
2019-02-25T06:19:51.404Z,99.90
2019-02-25T06:22:21.205Z,99.90
2019-02-25T06:24:50.968Z,99.90
2019-02-25T06:27:30.299Z,99.90
2019-02-25T06:29:53.184Z,99.90
2019-02-25T06:32:22.938Z,99.90
2019-02-25T06:34:52.714Z,99.90
2019-02-25T06:37:22.454Z,99.90
2019-02-25T06:39:52.197Z,99.90
2019-02-25T06:42:21.952Z,99.90
2019-02-25T06:44:51.978Z,99.90
2019-02-25T06:47:21.796Z,99.90
2019-02-25T06:49:51.597Z,99.90
2019-02-25T06:52:21.349Z,99.90
2019-02-25T06:54:51.083Z,99.90
2019-02-25T06:57:20.825Z,99.90
2019-02-25T06:59:51.592Z,99.90
2019-02-25T07:02:21.404Z,99.90
2019-02-25T07:04:57.211Z,99.90
2019-02-25T07:07:54.828Z,99.90
2019-02-25T07:10:42.371Z,99.90
2019-02-25T07:13:37.330Z,99.90
2019-02-25T07:16:24.931Z,99.90
2019-02-25T07:19:12.765Z,99.90
2019-02-25T07:22:05.959Z,99.90
2019-02-25T07:24:52.787Z,99.90
2019-02-25T07:27:42.280Z,99.90
2019-02-25T07:30:19.542Z,99.90
2019-02-25T07:33:13.652Z,95.90
2019-02-25T07:36:08.747Z,84.90
2019-02-25T07:38:57.621Z,75.50
2019-02-25T07:41:34.856Z,80.80
2019-02-25T07:44:11.597Z,83.10
2019-02-25T07:46:49.550Z,80.00
2019-02-25T07:49:34.381Z,78.30
2019-02-25T07:52:23.264Z,76.20
2019-02-25T07:55:21.709Z,72.60
2019-02-25T07:58:05.554Z,72.90
2019-02-25T08:00:43.357Z,72.40
2019-02-25T08:03:22.200Z,74.70
2019-02-25T08:06:09.465Z,72.90
2019-02-25T08:08:57.190Z,70.60
2019-02-25T08:11:46.075Z,73.10
2019-02-25T08:14:25.392Z,63.80
2019-02-25T08:17:11.618Z,59.10
2019-02-25T08:19:49.920Z,60.90
2019-02-25T08:22:31.477Z,58.50
2019-02-25T08:25:18.672Z,57.30
2019-02-25T08:28:16.596Z,54.80
2019-02-25T08:30:59.089Z,53.10
2019-02-25T08:33:48.949Z,54.30
2019-02-25T08:37:29.756Z,54.30
2019-02-25T08:40:34.984Z,56.30
2019-02-25T08:43:20.185Z,56.30
2019-02-25T08:46:04.778Z,56.10
2019-02-25T08:49:11.545Z,56.70
2019-02-25T08:51:41.596Z,57.40
2019-02-25T08:54:11.489Z,57.50
2019-02-25T08:56:41.345Z,53.30
2019-02-25T08:59:11.224Z,51.60
2019-02-25T09:01:41.469Z,46.70
2019-02-25T09:04:11.504Z,47.50
2019-02-25T09:06:41.337Z,46.70
2019-02-25T09:09:11.216Z,45.70
2019-02-25T09:11:41.100Z,46.20
2019-02-25T09:14:11.044Z,49.60
2019-02-25T09:16:40.784Z,49.30
2019-02-25T09:19:10.684Z,47.60
2019-02-25T09:21:40.507Z,47.10
2019-02-25T09:24:10.365Z,45.20
2019-02-25T09:26:40.282Z,42.90
2019-02-25T09:29:10.389Z,41.70
2019-02-25T09:31:40.302Z,43.70
2019-02-25T09:34:11.808Z,42.60
2019-02-25T09:36:42.849Z,43.20
2019-02-25T09:39:13.705Z,42.80
2019-02-25T09:41:43.629Z,41.60
2019-02-25T09:44:13.468Z,41.10
2019-02-25T09:46:43.493Z,40.20
2019-02-25T09:49:13.366Z,41.60
2019-02-25T09:51:43.490Z,38.40
2019-02-25T09:54:13.254Z,39.70
2019-02-25T09:56:42.993Z,38.70
2019-02-25T09:59:12.981Z,38.50
2019-02-25T10:01:42.821Z,37.20
2019-02-25T10:04:12.705Z,37.20
2019-02-25T10:06:42.532Z,37.50
2019-02-25T10:09:12.650Z,38.30
2019-02-25T10:11:42.752Z,36.00
2019-02-25T10:14:12.565Z,36.10
2019-02-25T10:16:42.403Z,36.90
2019-02-25T10:19:12.133Z,33.10
2019-02-25T10:21:41.952Z,34.60
2019-02-25T10:24:11.703Z,36.80
2019-02-25T10:26:41.450Z,33.20
2019-02-25T10:29:11.579Z,30.50
2019-02-25T10:31:42.195Z,31.60
2019-02-25T10:34:13.204Z,35.70
2019-02-25T10:36:44.017Z,33.90
2019-02-25T10:39:15.412Z,32.80
2019-02-25T10:41:46.112Z,34.50
2019-02-25T10:44:15.846Z,34.40
2019-02-25T10:46:47.021Z,34.00
2019-02-25T10:49:17.429Z,33.90
2019-02-25T10:51:47.167Z,31.70
2019-02-25T10:54:18.943Z,32.10
2019-02-25T10:56:57.926Z,31.20
2019-02-25T10:59:27.668Z,32.20
2019-02-25T11:01:57.493Z,29.40
2019-02-25T11:04:27.224Z,33.60
2019-02-25T11:06:58.544Z,34.70
2019-02-25T11:09:54.188Z,36.10
2019-02-25T11:12:25.733Z,34.80
2019-02-25T11:14:55.776Z,32.80
2019-02-25T11:17:25.594Z,34.70
2019-02-25T11:19:56.621Z,37.80
2019-02-25T11:22:27.066Z,37.50
2019-02-25T11:24:57.750Z,39.60
2019-02-25T11:27:28.687Z,34.80
2019-02-25T11:29:59.376Z,33.60
2019-02-25T11:32:29.111Z,35.30
2019-02-25T11:34:58.979Z,32.50
2019-02-25T11:37:28.904Z,33.80
2019-02-25T11:39:59.836Z,33.30
2019-02-25T11:42:30.565Z,33.80
2019-02-25T11:45:02.373Z,34.90
2019-02-25T11:47:32.449Z,34.30
2019-02-25T11:50:02.402Z,35.00
2019-02-25T11:52:32.145Z,35.70
2019-02-25T11:55:03.095Z,37.50
2019-02-25T11:57:33.880Z,36.10
2019-02-25T12:00:04.186Z,37.20
2019-02-25T12:02:34.152Z,38.60
2019-02-25T12:05:04.108Z,37.50
2019-02-25T12:07:34.081Z,35.10
2019-02-25T12:10:04.081Z,36.00
2019-02-25T12:12:33.833Z,33.10
2019-02-25T12:15:03.996Z,39.10
2019-02-25T12:17:33.896Z,38.20
2019-02-25T12:20:04.010Z,35.80
2019-02-25T12:22:34.001Z,37.00
2019-02-25T12:25:03.985Z,36.20
2019-02-25T12:27:33.788Z,34.50
2019-02-25T12:30:03.612Z,37.10
2019-02-25T12:32:33.645Z,36.60
2019-02-25T12:35:03.469Z,34.60
2019-02-25T12:37:33.488Z,38.00
2019-02-25T12:40:03.572Z,36.40
2019-02-25T12:45:02.751Z,37.70
2019-02-25T12:47:32.988Z,36.40
2019-02-25T12:50:02.913Z,38.80
2019-02-25T12:52:32.716Z,35.20
2019-02-25T12:55:02.464Z,37.40
2019-02-25T12:57:32.560Z,39.40
2019-02-25T13:00:02.545Z,40.60
2019-02-25T13:02:32.649Z,39.20
2019-02-25T13:05:02.781Z,38.20
2019-02-25T13:07:34.015Z,36.80
2019-02-25T13:10:04.840Z,37.70
2019-02-25T13:12:34.956Z,41.80
2019-02-25T13:15:13.112Z,40.80
2019-02-25T13:17:37.894Z,38.70
2019-02-25T13:20:08.321Z,37.40
2019-02-25T13:22:46.718Z,37.80
2019-02-25T13:25:16.834Z,42.40
2019-02-25T13:27:46.727Z,42.40
2019-02-25T13:30:17.845Z,40.30
2019-02-25T13:32:47.976Z,41.10
2019-02-25T13:35:17.958Z,39.00
2019-02-25T13:37:47.975Z,41.60
2019-02-25T13:40:19.277Z,40.50
2019-02-25T13:42:49.433Z,40.70
2019-02-25T13:45:19.660Z,41.10
2019-02-25T13:47:51.664Z,40.50
2019-02-25T13:50:21.919Z,40.00
2019-02-25T13:52:52.023Z,40.80
2019-02-25T13:55:22.278Z,40.40
2019-02-25T13:57:52.320Z,39.80
2019-02-25T14:00:22.800Z,38.50
2019-02-25T14:02:52.748Z,39.20
2019-02-25T14:05:23.258Z,38.70
2019-02-25T14:07:53.566Z,44.10
2019-02-25T14:10:23.882Z,40.90
2019-02-25T14:12:53.815Z,44.40
2019-02-25T14:15:23.999Z,44.10
2019-02-25T14:17:53.917Z,44.90
2019-02-25T14:20:23.955Z,45.20
2019-02-25T14:22:53.948Z,44.40
2019-02-25T14:25:25.011Z,43.60
2019-02-25T14:27:55.003Z,43.50
2019-02-25T14:30:25.388Z,43.10
2019-02-25T14:32:56.037Z,43.50
2019-02-25T14:35:28.564Z,44.80
2019-02-25T14:38:05.063Z,45.30
2019-02-25T14:40:32.482Z,48.00
2019-02-25T14:43:03.988Z,51.40
2019-02-25T14:45:34.509Z,47.80
2019-02-25T14:48:08.022Z,48.80
2019-02-25T14:50:37.632Z,49.60
2019-02-25T14:53:10.725Z,47.60
2019-02-25T14:55:40.763Z,49.40
2019-02-25T14:58:12.645Z,49.40
2019-02-25T15:00:42.617Z,50.00
2019-02-25T15:03:12.696Z,50.10
2019-02-25T15:05:43.005Z,49.30
2019-02-25T15:08:13.066Z,50.90
2019-02-25T15:10:43.088Z,48.50
2019-02-25T15:13:13.232Z,49.60
2019-02-25T15:15:45.785Z,52.00
2019-02-25T15:18:16.878Z,55.20
2019-02-25T15:20:48.945Z,54.80
2019-02-25T15:23:23.740Z,55.80
2019-02-25T15:25:53.234Z,57.10
2019-02-25T15:28:23.421Z,60.60
2019-02-25T15:30:53.512Z,58.10
2019-02-25T15:33:23.749Z,60.30
2019-02-25T15:35:53.593Z,62.80
2019-02-25T15:38:23.488Z,64.50
2019-02-25T15:40:55.860Z,66.90
2019-02-25T15:43:26.366Z,68.80
2019-02-25T15:45:59.608Z,63.10
2019-02-25T15:48:30.927Z,60.00
2019-02-25T15:51:02.031Z,59.40
2019-02-25T15:53:32.878Z,61.50
2019-02-25T15:56:03.774Z,65.10
2019-02-25T15:58:34.777Z,64.10
2019-02-25T16:01:04.748Z,69.00
2019-02-25T16:03:36.640Z,71.90
2019-02-25T16:06:08.339Z,75.10
2019-02-25T16:08:39.135Z,79.50
2019-02-25T16:11:11.953Z,84.00
2019-02-25T16:13:45.547Z,88.80
2019-02-25T16:16:16.192Z,90.70
2019-02-25T16:18:46.291Z,91.30
2019-02-25T16:21:16.275Z,91.70
2019-02-25T16:23:46.142Z,93.40
2019-02-25T16:26:17.794Z,95.10
2019-02-25T16:28:47.707Z,97.00
2019-02-25T16:31:17.773Z,99.00
2019-02-25T16:33:49.076Z,99.90
2019-02-25T16:36:21.535Z,99.90
2019-02-25T16:38:53.643Z,99.90
2019-02-25T16:41:27.476Z,99.90
2019-02-25T16:43:55.807Z,99.90
2019-02-25T16:46:26.382Z,99.90
2019-02-25T16:48:57.394Z,99.90
2019-02-25T16:51:28.128Z,99.90
2019-02-25T16:53:59.087Z,99.90
2019-02-25T16:56:30.112Z,99.90
2019-02-25T16:59:00.293Z,99.90
2019-02-25T17:01:32.156Z,99.90
2019-02-25T17:04:02.507Z,99.90
2019-02-25T17:06:33.075Z,99.90
2019-02-25T17:09:05.309Z,99.90
2019-02-25T17:11:37.943Z,99.90
2019-02-25T17:14:08.224Z,99.90
2019-02-25T17:16:38.432Z,99.90
2019-02-25T17:19:08.488Z,99.90
2019-02-25T17:21:38.712Z,99.90
2019-02-25T17:24:09.526Z,99.90
2019-02-25T17:26:39.311Z,99.90
2019-02-25T17:29:09.349Z,99.90
2019-02-25T17:31:40.827Z,99.90
2019-02-25T17:34:12.166Z,99.90
2019-02-25T17:36:44.783Z,99.90
2019-02-25T17:39:15.457Z,99.90
2019-02-25T17:41:46.589Z,99.90
2019-02-25T17:44:17.917Z,99.90
2019-02-25T17:46:49.020Z,99.90
2019-02-25T17:49:19.248Z,99.90
2019-02-25T17:51:51.149Z,99.90
2019-02-25T17:54:24.001Z,99.90
2019-02-25T17:56:53.873Z,99.90
2019-02-25T17:59:25.181Z,99.90
2019-02-25T18:01:55.492Z,99.90
2019-02-25T18:04:26.555Z,99.90
2019-02-25T18:06:57.086Z,99.90
2019-02-25T18:09:27.257Z,99.90
2019-02-25T18:11:57.158Z,99.90
2019-02-25T18:14:26.957Z,99.90
2019-02-25T18:16:56.943Z,99.90
2019-02-25T18:19:27.173Z,99.90
2019-02-25T18:21:58.796Z,99.90
2019-02-25T18:24:28.764Z,99.90
2019-02-25T18:26:58.864Z,99.90
2019-02-25T18:29:28.853Z,99.90
2019-02-25T18:31:58.933Z,99.90
2019-02-25T18:34:30.126Z,99.90
2019-02-25T18:37:00.316Z,99.90
2019-02-25T18:39:31.618Z,99.90
2019-02-25T18:42:01.636Z,99.90
2019-02-25T18:44:31.772Z,99.90
2019-02-25T18:47:01.688Z,99.90
2019-02-25T18:49:32.635Z,99.90
2019-02-25T18:52:03.258Z,99.90
2019-02-25T18:54:33.156Z,99.90
2019-02-25T18:57:03.797Z,99.90
2019-02-25T18:59:34.659Z,99.90
2019-02-25T19:02:05.801Z,99.90
2019-02-25T19:04:39.042Z,99.90
2019-02-25T19:07:10.322Z,99.90
2019-02-25T19:09:40.812Z,99.90
2019-02-25T19:12:13.486Z,99.90
2019-02-25T19:14:43.553Z,99.90
2019-02-25T19:17:13.459Z,99.90
2019-02-25T19:19:44.532Z,99.90
2019-02-25T19:22:15.867Z,99.90
2019-02-25T19:24:48.770Z,99.90
2019-02-25T19:27:18.378Z,99.90
2019-02-25T19:29:49.481Z,99.90
2019-02-25T19:32:22.909Z,99.90
2019-02-25T19:34:53.715Z,99.90
2019-02-25T19:37:23.530Z,99.90
2019-02-25T19:39:53.754Z,99.90
2019-02-25T19:42:25.219Z,99.90
2019-02-25T19:44:56.450Z,99.90
2019-02-25T19:47:27.059Z,99.90
2019-02-25T19:49:57.276Z,99.90
2019-02-25T19:52:30.703Z,99.90
2019-02-25T19:54:58.654Z,99.90
2019-02-25T19:57:30.697Z,99.90
2019-02-25T20:00:02.867Z,99.90
2019-02-25T20:02:34.773Z,99.90
2019-02-25T20:05:09.633Z,99.90
2019-02-25T20:07:37.012Z,99.90
2019-02-25T20:10:08.589Z,99.90
2019-02-25T20:12:57.270Z,99.90
2019-02-25T20:15:55.664Z,99.90
2019-02-25T20:18:46.782Z,99.90
2019-02-25T20:21:16.924Z,99.90
2019-02-25T20:23:47.985Z,99.90
2019-02-25T20:26:19.993Z,99.90
2019-02-25T20:28:50.661Z,99.90
2019-02-25T20:31:20.801Z,99.90
2019-02-25T20:33:52.917Z,99.90
2019-02-25T20:36:41.079Z,99.90
2019-02-25T20:39:12.392Z,99.90
2019-02-25T20:41:43.349Z,99.90
2019-02-25T20:44:14.049Z,99.90
2019-02-25T20:46:48.608Z,99.90
2019-02-25T20:49:18.370Z,99.90
2019-02-25T20:51:49.883Z,99.90
2019-02-25T20:54:20.934Z,99.90
2019-02-25T20:56:53.358Z,99.90
2019-02-25T20:59:25.629Z,99.90
2019-02-25T21:01:55.549Z,99.90
2019-02-25T21:04:27.610Z,99.90
2019-02-25T21:08:26.197Z,99.90
2019-02-25T21:10:37.005Z,99.90
2019-02-25T21:13:06.912Z,99.90
2019-02-25T21:15:38.466Z,99.90
2019-02-25T21:18:08.575Z,99.90
2019-02-25T21:20:38.781Z,99.90
2019-02-25T21:23:10.682Z,99.90
2019-02-25T21:25:40.518Z,99.90
2019-02-25T21:28:11.381Z,99.90
2019-02-25T21:30:43.569Z,99.90
2019-02-25T21:33:15.360Z,99.90
2019-02-25T21:35:44.221Z,99.90
2019-02-25T21:38:14.104Z,99.90
2019-02-25T21:40:46.078Z,99.90
2019-02-25T21:43:16.536Z,99.90
2019-02-25T21:45:49.883Z,99.90
2019-02-25T21:48:21.118Z,99.90
2019-02-25T21:50:50.624Z,99.90
2019-02-25T21:53:20.515Z,99.90
2019-02-25T21:55:52.705Z,99.90
2019-02-25T21:58:23.647Z,99.90
2019-02-25T22:00:54.900Z,99.90
2019-02-25T22:03:25.770Z,99.90
2019-02-25T22:05:57.920Z,99.90
2019-02-25T22:08:28.922Z,99.90
2019-02-25T22:11:11.735Z,99.90
2019-02-25T22:13:30.500Z,99.90
2019-02-25T22:16:01.787Z,99.90
2019-02-25T22:18:34.095Z,99.90
2019-02-25T22:21:05.356Z,99.90
2019-02-25T22:23:37.014Z,99.90
2019-02-25T22:26:06.580Z,99.90
2019-02-25T22:28:37.623Z,99.90
2019-02-25T22:31:10.628Z,99.90
2019-02-25T22:33:39.838Z,99.90
2019-02-25T22:36:09.737Z,99.90
2019-02-25T22:38:39.934Z,99.90
2019-02-25T22:41:10.281Z,99.90
2019-02-25T22:43:43.168Z,99.90
2019-02-25T22:46:11.857Z,99.90
2019-02-25T22:48:43.305Z,99.90
2019-02-25T22:51:13.060Z,99.90
2019-02-25T22:53:42.833Z,99.90
2019-02-25T22:56:13.550Z,99.90
2019-02-25T22:58:44.601Z,99.90
2019-02-25T23:01:17.949Z,99.90
2019-02-25T23:03:47.981Z,99.90
2019-02-25T23:06:20.720Z,99.90
2019-02-25T23:08:51.119Z,99.90
2019-02-25T23:11:24.343Z,99.90
2019-02-25T23:13:54.806Z,99.90
2019-02-25T23:16:25.455Z,99.90
2019-02-25T23:18:56.429Z,99.90
2019-02-25T23:21:28.600Z,99.90
2019-02-25T23:23:58.071Z,99.90
2019-02-25T23:26:29.237Z,99.90
2019-02-25T23:29:00.102Z,99.90
2019-02-25T23:31:30.753Z,99.90
2019-02-25T23:34:00.624Z,99.90
2019-02-25T23:36:30.524Z,99.90
2019-02-25T23:39:01.716Z,99.90
2019-02-25T23:41:36.250Z,99.90
2019-02-25T23:44:08.653Z,99.90
2019-02-25T23:46:37.326Z,99.90
2019-02-25T23:49:08.265Z,99.90
2019-02-25T23:51:39.450Z,99.90
2019-02-25T23:54:12.131Z,99.90
2019-02-25T23:56:41.169Z,99.90
2019-02-25T23:59:14.635Z,99.90
